Time;durP1;ratioP1;P1;durP2;ratioP2;P2;SDS_P1;SDS_P2;PMS_P1;PMS_P2;Temp;Humidity;BMP_temperature;BMP_pressure;BME280_temperature;BME280_humidity;BME280_pressure;Samples;Min_cycle;Max_cycle;Signal;HPM_P1;HPM_P2
2022/11/15 00:04:27;;;;;;;201.07;42.67;;;5.00;99.90;;;;;;10464524;28;20056;-80
2022/11/15 00:09:27;;;;;;;223.80;41.93;;;5.00;99.90;;;;;;10477111;28;20064;-80
2022/11/15 00:14:28;;;;;;;172.10;40.03;;;5.00;99.90;;;;;;10460126;28;20090;-78
2022/11/15 00:19:28;;;;;;;171.93;33.73;;;5.00;99.90;;;;;;10470348;28;20078;-78
2022/11/15 00:24:29;;;;;;;215.20;42.37;;;5.00;99.90;;;;;;10465953;28;20051;-78
2022/11/15 00:29:29;;;;;;;289.87;50.50;;;5.00;99.90;;;;;;10488264;28;20593;-78
2022/11/15 00:34:30;;;;;;;115.23;34.27;;;5.00;99.90;;;;;;10459554;28;20033;-79
2022/11/15 00:39:30;;;;;;;187.07;41.67;;;5.00;99.90;;;;;;10461678;28;20086;-79
2022/11/15 00:44:31;;;;;;;156.63;37.63;;;5.00;99.90;;;;;;10479697;28;20040;-79
2022/11/15 00:49:31;;;;;;;143.60;30.03;;;5.00;99.90;;;;;;10474056;28;20040;-78
2022/11/15 00:54:32;;;;;;;208.80;41.53;;;5.00;99.90;;;;;;10476654;28;20042;-79
2022/11/15 00:59:32;;;;;;;197.37;42.80;;;5.10;99.90;;;;;;10485635;28;20136;-79
2022/11/15 01:04:33;;;;;;;277.50;44.70;;;5.00;99.90;;;;;;10466965;28;20046;-78
2022/11/15 01:09:34;;;;;;;121.80;32.00;;;5.10;99.90;;;;;;10474874;28;20088;-79
2022/11/15 01:14:34;;;;;;;252.83;47.40;;;5.10;99.90;;;;;;10464753;28;20451;-79
2022/11/15 01:19:35;;;;;;;148.20;34.77;;;5.10;99.90;;;;;;10454593;28;20081;-79
2022/11/15 01:24:35;;;;;;;236.53;47.00;;;5.10;99.90;;;;;;10461512;28;20044;-79
2022/11/15 01:29:36;;;;;;;152.07;41.70;;;5.00;99.90;;;;;;10474573;28;20495;-78
2022/11/15 01:34:36;;;;;;;143.47;39.50;;;5.00;99.90;;;;;;10463559;28;20028;-78
2022/11/15 01:39:37;;;;;;;171.57;34.50;;;5.00;99.90;;;;;;10465987;28;20040;-79
2022/11/15 01:44:40;;;;;;;202.30;38.07;;;5.00;99.90;;;;;;10466580;28;20561;-78
2022/11/15 01:49:55;;;;;;;151.13;30.93;;;5.00;99.90;;;;;;10458510;28;20597;-78
2022/11/15 01:55:13;;;;;;;146.80;37.10;;;4.90;99.90;;;;;;10443315;28;20039;-78
2022/11/15 02:00:15;;;;;;;194.67;33.03;;;4.90;99.90;;;;;;10467474;28;20086;-79
2022/11/15 02:05:16;;;;;;;134.47;32.00;;;4.90;99.90;;;;;;10450474;28;20040;-79
2022/11/15 02:10:22;;;;;;;132.63;29.83;;;4.90;99.90;;;;;;10455571;28;20798;-79
2022/11/15 02:15:30;;;;;;;153.73;31.53;;;4.90;99.90;;;;;;10469445;28;20115;-79
2022/11/15 02:20:49;;;;;;;204.30;40.90;;;4.80;99.90;;;;;;10465861;28;20036;-78
2022/11/15 02:26:10;;;;;;;184.13;32.70;;;4.80;99.90;;;;;;10470892;28;20119;-78
2022/11/15 02:31:18;;;;;;;145.70;32.20;;;4.80;99.90;;;;;;10466598;28;20032;-78
2022/11/15 02:37:04;;;;;;;142.17;31.07;;;4.90;99.90;;;;;;10482549;28;20612;-79
2022/11/15 02:47:37;;;;;;;188.00;34.70;;;4.80;99.90;;;;;;10433273;28;20040;-79
2022/11/15 02:52:38;;;;;;;165.10;36.03;;;4.80;99.90;;;;;;10471406;28;20032;-79
2022/11/15 02:57:54;;;;;;;109.27;30.60;;;4.80;99.90;;;;;;10483779;28;20078;-79
2022/11/15 03:03:07;;;;;;;193.75;36.72;;;4.80;99.90;;;;;;10460172;28;20043;-79
2022/11/15 03:08:39;;;;;;;159.57;31.57;;;4.80;99.90;;;;;;10485570;28;20056;-78
2022/11/15 03:13:50;;;;;;;172.77;28.97;;;4.80;99.90;;;;;;10455544;28;20121;-79
2022/11/15 03:18:58;;;;;;;141.17;31.97;;;4.70;99.90;;;;;;10465663;28;20074;-79
2022/11/15 03:24:03;;;;;;;166.27;29.83;;;4.70;99.90;;;;;;10480715;28;20044;-78
2022/11/15 03:29:15;;;;;;;155.60;32.83;;;4.70;99.90;;;;;;10478614;28;20097;-80
2022/11/15 03:34:28;;;;;;;173.77;36.67;;;4.60;99.90;;;;;;10466701;28;20388;-79
2022/11/15 03:39:29;;;;;;;179.67;37.67;;;4.60;99.90;;;;;;10475311;28;20037;-79
2022/11/15 03:44:47;;;;;;;203.60;37.97;;;4.70;99.90;;;;;;10477342;28;20789;-79
2022/11/15 03:49:55;;;;;;;196.03;37.43;;;4.70;99.90;;;;;;10470940;28;20037;-79
2022/11/15 03:54:56;;;;;;;142.50;36.10;;;4.70;99.90;;;;;;10480217;28;20032;-81
2022/11/15 03:59:57;;;;;;;198.60;36.50;;;4.70;99.90;;;;;;10474249;28;20063;-79
2022/11/15 04:04:57;;;;;;;194.87;39.17;;;4.70;99.90;;;;;;10452545;28;20044;-79
2022/11/15 04:10:05;;;;;;;277.10;38.50;;;4.70;99.90;;;;;;10449107;28;20143;-79
2022/11/15 04:15:11;;;;;;;121.17;29.67;;;4.70;99.90;;;;;;10457512;28;20036;-79
2022/11/15 04:25:45;;;;;;;196.53;35.73;;;4.60;99.90;;;;;;10479375;28;20032;-78
2022/11/15 04:30:46;;;;;;;143.83;32.97;;;4.60;99.90;;;;;;10464630;28;20388;-79
2022/11/15 04:37:11;;;;;;;147.93;33.37;;;4.60;99.90;;;;;;10463299;28;20028;-80
2022/11/15 04:41:07;;;;;;;190.67;38.13;;;4.60;99.90;;;;;;10454940;28;20101;-80
2022/11/15 04:46:07;;;;;;;167.40;32.63;;;4.50;99.90;;;;;;10467372;28;20543;-81
2022/11/15 04:51:08;;;;;;;127.30;33.67;;;4.50;99.90;;;;;;10466067;28;20104;-78
2022/11/15 04:56:08;;;;;;;163.73;31.97;;;4.50;99.90;;;;;;10455851;28;20115;-78
2022/11/15 05:01:14;;;;;;;177.00;38.23;;;4.60;99.90;;;;;;10468429;28;20036;-78
2022/11/15 05:06:14;;;;;;;176.95;38.70;;;4.50;99.90;;;;;;10460845;28;20057;-79
2022/11/15 05:11:15;;;;;;;146.93;33.63;;;4.60;99.90;;;;;;10455775;28;20127;-78
2022/11/15 05:16:16;;;;;;;172.97;35.70;;;4.60;99.90;;;;;;10472916;28;20120;-79
2022/11/15 05:21:16;;;;;;;165.30;38.47;;;4.60;99.90;;;;;;10448517;28;20037;-78
2022/11/15 05:26:18;;;;;;;131.47;34.00;;;4.60;99.90;;;;;;10471561;28;20127;-78
2022/11/15 05:31:18;;;;;;;183.30;36.57;;;4.70;99.90;;;;;;10480193;28;20037;-78
2022/11/15 05:36:27;;;;;;;125.93;32.27;;;4.70;99.90;;;;;;10485433;28;20024;-78
2022/11/15 05:41:40;;;;;;;202.93;37.43;;;4.70;99.90;;;;;;10458636;28;20037;-78
2022/11/15 05:46:42;;;;;;;117.30;30.93;;;4.60;99.90;;;;;;10485372;28;20485;-78
2022/11/15 05:51:47;;;;;;;135.07;27.57;;;4.70;99.90;;;;;;10484628;28;20023;-78
2022/11/15 05:56:48;;;;;;;139.90;28.83;;;4.60;99.90;;;;;;10484297;28;20064;-78
2022/11/15 06:01:49;;;;;;;155.67;33.27;;;4.60;99.90;;;;;;10485244;28;20071;-78
2022/11/15 06:06:49;;;;;;;141.93;33.90;;;4.50;99.90;;;;;;10483857;28;20039;-79
2022/11/15 06:11:50;;;;;;;179.80;30.70;;;4.50;99.90;;;;;;10483931;28;20052;-78
2022/11/15 06:16:50;;;;;;;242.53;37.03;;;4.60;99.90;;;;;;10483748;28;20024;-79
2022/11/15 06:21:51;;;;;;;127.53;27.57;;;4.50;99.90;;;;;;10483408;28;20036;-79
2022/11/15 06:26:51;;;;;;;118.63;29.80;;;4.50;99.90;;;;;;10484645;28;20092;-79
2022/11/15 06:31:52;;;;;;;79.50;24.77;;;4.50;99.90;;;;;;10483133;28;20088;-79
2022/11/15 06:36:53;;;;;;;77.23;26.03;;;4.50;99.90;;;;;;10478776;28;20036;-79
2022/11/15 06:41:54;;;;;;;80.07;26.60;;;4.50;99.90;;;;;;10473878;28;20067;-78
2022/11/15 06:46:54;;;;;;;82.23;28.13;;;4.60;99.90;;;;;;10482938;28;20036;-79
2022/11/15 06:51:55;;;;;;;65.13;25.40;;;4.60;99.90;;;;;;10470387;28;20111;-79
2022/11/15 06:56:55;;;;;;;78.37;30.70;;;4.60;99.90;;;;;;10482993;28;20108;-78
2022/11/15 07:01:56;;;;;;;81.20;29.70;;;4.70;99.90;;;;;;10482962;28;20047;-78
2022/11/15 07:06:56;;;;;;;90.50;30.50;;;4.70;99.90;;;;;;10464265;28;20021;-78
2022/11/15 07:11:57;;;;;;;117.63;32.90;;;4.60;99.90;;;;;;10482756;28;20102;-79
2022/11/15 07:16:57;;;;;;;106.37;27.10;;;4.60;99.90;;;;;;10483014;28;20694;-78
2022/11/15 07:21:58;;;;;;;66.13;21.17;;;4.70;99.90;;;;;;10482537;28;20040;-79
2022/11/15 07:26:58;;;;;;;93.63;30.17;;;4.70;99.90;;;;;;10482768;28;20040;-79
2022/11/15 07:31:59;;;;;;;155.87;31.53;;;4.70;99.90;;;;;;10482010;28;20039;-79
2022/11/15 07:37:00;;;;;;;207.53;51.10;;;4.90;99.90;;;;;;10482395;28;20023;-79
2022/11/15 07:47:20;;;;;;;71.90;29.90;;;4.90;99.90;;;;;;10484533;28;20040;-79
2022/11/15 07:52:20;;;;;;;87.87;29.37;;;5.00;99.90;;;;;;10490275;28;20039;-79
2022/11/15 07:57:21;;;;;;;114.37;31.33;;;5.20;99.90;;;;;;10490363;28;20028;-78
2022/11/15 08:02:22;;;;;;;112.97;35.53;;;5.20;99.90;;;;;;10489971;28;20510;-78
2022/11/15 08:07:22;;;;;;;63.03;28.17;;;5.40;99.90;;;;;;10478235;28;20037;-78
2022/11/15 08:12:23;;;;;;;74.40;29.40;;;5.50;99.90;;;;;;10427244;28;20092;-79
2022/11/15 08:17:25;;;;;;;116.73;36.23;;;5.50;99.90;;;;;;10474925;28;20777;-78
2022/11/15 08:22:25;;;;;;;342.97;49.13;;;5.60;99.90;;;;;;10488265;28;20025;-78
2022/11/15 08:27:26;;;;;;;114.60;35.70;;;5.80;99.90;;;;;;10474305;28;20021;-79
2022/11/15 08:32:26;;;;;;;152.27;46.30;;;5.80;99.90;;;;;;10488910;28;20034;-79
2022/11/15 08:37:27;;;;;;;91.53;34.30;;;6.00;99.90;;;;;;10480093;28;20033;-78
2022/11/15 08:42:27;;;;;;;136.63;37.83;;;6.20;99.90;;;;;;10461954;28;20048;-79
2022/11/15 08:47:28;;;;;;;80.50;34.73;;;6.30;99.90;;;;;;10488419;28;20086;-79
2022/11/15 08:52:28;;;;;;;88.37;38.00;;;6.40;99.90;;;;;;10487858;28;20036;-79
2022/11/15 08:57:30;;;;;;;98.60;37.60;;;6.40;99.90;;;;;;10487190;28;20036;-78
2022/11/15 09:02:30;;;;;;;102.57;40.30;;;6.40;99.90;;;;;;10472819;28;20040;-79
2022/11/15 09:07:31;;;;;;;86.83;36.87;;;6.60;99.90;;;;;;10486656;28;20036;-79
2022/11/15 09:12:32;;;;;;;77.47;35.20;;;7.00;99.90;;;;;;10487038;28;20144;-79
2022/11/15 09:17:32;;;;;;;106.60;41.57;;;7.20;99.90;;;;;;10472191;28;20036;-79
2022/11/15 09:22:33;;;;;;;95.30;42.37;;;7.20;99.90;;;;;;10477514;28;20037;-79
2022/11/15 09:27:34;;;;;;;96.93;44.07;;;7.30;99.90;;;;;;10480111;28;20024;-79
2022/11/15 09:32:34;;;;;;;93.43;47.80;;;7.60;99.90;;;;;;10485597;28;20036;-78
2022/11/15 09:37:35;;;;;;;95.57;47.60;;;7.90;99.90;;;;;;10485660;28;20028;-79
2022/11/15 09:43:13;;;;;;;99.57;49.13;;;8.20;99.90;;;;;;10485237;28;20134;-79
2022/11/15 09:48:33;;;;;;;86.03;43.07;;;8.30;99.90;;;;;;10439820;28;20115;-78
2022/11/15 09:53:51;;;;;;;87.70;42.17;;;8.40;99.90;;;;;;10484823;28;20036;-78
2022/11/15 09:59:13;;;;;;;89.40;44.57;;;8.40;99.90;;;;;;10484720;28;20106;-79
2022/11/15 10:04:14;;;;;;;81.43;40.80;;;8.80;99.90;;;;;;10484602;28;20592;-79
2022/11/15 10:09:38;;;;;;;72.77;37.83;;;9.20;99.90;;;;;;10484628;28;20400;-78
2022/11/15 10:14:38;;;;;;;79.10;41.83;;;9.60;99.90;;;;;;10484800;28;20023;-78
2022/11/15 10:20:10;;;;;;;75.75;38.72;;;10.00;99.90;;;;;;10471170;28;20033;-79
2022/11/15 10:25:20;;;;;;;73.05;38.83;;;10.50;99.90;;;;;;10483863;28;20041;-78
2022/11/15 10:30:22;;;;;;;65.53;36.20;;;10.90;99.90;;;;;;10483795;28;20040;-78
2022/11/15 10:35:27;;;;;;;68.07;37.50;;;11.30;99.90;;;;;;10483750;28;20032;-78
2022/11/15 10:40:27;;;;;;;64.23;35.93;;;11.40;99.90;;;;;;10483911;28;20043;-78
2022/11/15 10:45:30;;;;;;;69.57;40.15;;;11.30;99.90;;;;;;10484093;28;20858;-79
2022/11/15 10:50:32;;;;;;;69.55;42.65;;;11.20;99.90;;;;;;10483519;28;20032;-79
2022/11/15 10:55:33;;;;;;;64.00;36.25;;;11.20;99.90;;;;;;10484124;28;20036;-79
2022/11/15 11:00:38;;;;;;;69.15;39.83;;;11.40;99.90;;;;;;10483721;28;20141;-78
2022/11/15 11:05:40;;;;;;;70.40;34.53;;;11.50;99.90;;;;;;10483246;28;20037;-79
2022/11/15 11:11:08;;;;;;;63.20;36.63;;;11.50;99.90;;;;;;10483655;28;20056;-78
2022/11/15 11:16:14;;;;;;;58.90;36.05;;;11.40;99.90;;;;;;10467849;28;20040;-79
2022/11/15 11:21:22;;;;;;;60.33;33.88;;;11.70;99.90;;;;;;10481459;28;20039;-79
2022/11/15 11:26:42;;;;;;;63.20;36.72;;;11.90;99.90;;;;;;10491244;28;20476;-80
2022/11/15 11:32:13;;;;;;;59.13;35.00;;;12.10;99.90;;;;;;10491131;28;20377;-80
2022/11/15 11:37:29;;;;;;;59.45;34.65;;;12.30;99.90;;;;;;10490661;28;20024;-79
2022/11/15 11:42:48;;;;;;;46.45;27.98;;;12.50;99.90;;;;;;10490249;28;20051;-80
2022/11/15 11:47:59;;;;;;;42.55;25.35;;;12.70;99.90;;;;;;10490390;28;20420;-78
2022/11/15 11:53:08;;;;;;;39.83;24.20;;;12.80;99.90;;;;;;10489519;28;20025;-78
2022/11/15 11:58:21;;;;;;;43.53;27.17;;;12.90;99.90;;;;;;10490643;28;20035;-78
2022/11/15 12:03:40;;;;;;;46.97;25.35;;;12.80;99.90;;;;;;10475368;28;20033;-78
2022/11/15 12:08:56;;;;;;;38.78;23.33;;;12.50;99.90;;;;;;10489327;28;20056;-78
2022/11/15 12:14:01;;;;;;;36.65;23.08;;;12.50;99.90;;;;;;10489096;28;20469;-78
2022/11/15 12:19:04;;;;;;;44.93;24.97;;;12.50;99.90;;;;;;10475303;28;20032;-78
2022/11/15 12:24:14;;;;;;;42.42;24.35;;;12.50;99.90;;;;;;10488422;28;20098;-78
2022/11/15 12:29:40;;;;;;;44.55;24.90;;;12.50;99.90;;;;;;10488683;28;20559;-80
2022/11/15 12:34:45;;;;;;;41.35;25.63;;;12.40;99.90;;;;;;10487861;28;20054;-79
2022/11/15 12:40:26;;;;;;;44.00;24.80;;;12.30;99.90;;;;;;10488846;28;20036;-81
2022/11/15 12:45:36;;;;;;;42.47;24.48;;;12.10;99.90;;;;;;10488440;28;20075;-79
2022/11/15 12:50:55;;;;;;;42.10;24.08;;;12.00;99.90;;;;;;10488202;28;20767;-79
2022/11/15 12:56:16;;;;;;;51.83;28.58;;;11.90;99.90;;;;;;10488394;28;20034;-79
2022/11/15 13:01:32;;;;;;;47.85;28.05;;;12.00;99.90;;;;;;10487856;28;20033;-78
2022/11/15 13:06:53;;;;;;;48.92;30.45;;;12.00;99.90;;;;;;10487378;28;20047;-78
2022/11/15 13:11:55;;;;;;;49.42;28.20;;;12.10;99.90;;;;;;10480816;28;20793;-80
2022/11/15 13:16:59;;;;;;;52.13;29.75;;;12.20;99.90;;;;;;10456984;28;20032;-78
2022/11/15 13:27:19;;;;;;;58.25;35.83;;;12.20;99.90;;;;;;10474597;28;20044;-79
2022/11/15 13:32:21;;;;;;;54.63;30.70;;;12.20;99.90;;;;;;10465864;28;20387;-82
2022/11/15 13:37:22;;;;;;;44.28;26.60;;;12.10;99.90;;;;;;10481559;28;20029;-79
2022/11/15 13:42:28;;;;;;;47.65;24.90;;;12.10;99.90;;;;;;10472044;28;20122;-78
2022/11/15 13:47:29;;;;;;;45.28;26.90;;;12.10;99.90;;;;;;10467767;28;20782;-79
2022/11/15 13:52:36;;;;;;;46.33;28.23;;;12.00;99.90;;;;;;10468822;28;20391;-79
2022/11/15 13:57:45;;;;;;;62.72;36.50;;;12.00;99.90;;;;;;10481476;28;20052;-81
2022/11/15 14:02:46;;;;;;;49.60;29.65;;;11.90;99.90;;;;;;10473565;28;20449;-79
2022/11/15 14:07:55;;;;;;;50.30;28.60;;;11.90;99.90;;;;;;10458277;28;20147;-80
2022/11/15 14:12:57;;;;;;;51.03;30.10;;;11.80;99.90;;;;;;10477172;28;20377;-79
2022/11/15 14:17:58;;;;;;;56.90;31.38;;;11.70;99.90;;;;;;10462129;28;20837;-79
2022/11/15 14:23:04;;;;;;;69.40;37.95;;;11.60;99.90;;;;;;10481446;28;20032;-79
2022/11/15 14:28:12;;;;;;;;;;;11.50;99.90;;;;;;10481159;28;20449;-79
2022/11/15 14:33:21;;;;;;;86.18;46.60;;;11.40;99.90;;;;;;10482425;28;19912;-78
2022/11/15 14:38:24;;;;;;;60.38;32.30;;;11.40;99.90;;;;;;10483573;28;20036;-78
2022/11/15 14:43:24;;;;;;;106.35;50.50;;;11.30;99.90;;;;;;10474196;28;20540;-79
2022/11/15 14:48:25;;;;;;;73.78;38.28;;;11.30;99.90;;;;;;10470761;28;20032;-80
2022/11/15 14:53:25;;;;;;;71.85;38.10;;;11.30;99.90;;;;;;10452078;28;20473;-78
2022/11/15 14:58:26;;;;;;;69.45;37.08;;;11.20;99.90;;;;;;10459502;28;20033;-81
2022/11/15 15:03:26;;;;;;;84.05;43.92;;;11.20;99.90;;;;;;10469165;28;20064;-79
2022/11/15 15:08:27;;;;;;;74.63;40.00;;;11.20;99.90;;;;;;10472557;28;20167;-84
2022/11/15 15:13:30;;;;;;;120.03;62.80;;;11.10;99.90;;;;;;10441730;28;20037;-84
2022/11/15 15:18:30;;;;;;;140.75;72.88;;;11.10;99.90;;;;;;10414116;28;20029;-79
2022/11/15 15:23:31;;;;;;;233.48;121.45;;;11.00;99.90;;;;;;10458187;28;20600;-83
2022/11/15 15:28:31;;;;;;;126.60;81.30;;;10.90;99.90;;;;;;10463858;28;20036;-79
2022/11/15 15:33:32;;;;;;;147.93;87.80;;;10.70;99.90;;;;;;10468094;28;20045;-79
2022/11/15 15:38:33;;;;;;;179.43;90.10;;;10.60;99.90;;;;;;10460264;28;20036;-81
2022/11/15 15:43:33;;;;;;;127.38;65.78;;;10.50;99.90;;;;;;10464118;28;20040;-82
2022/11/15 15:48:37;;;;;;;101.97;54.10;;;10.30;99.90;;;;;;10453102;28;20043;-81
2022/11/15 15:53:38;;;;;;;100.97;55.85;;;10.20;99.90;;;;;;10442894;28;20048;-79
2022/11/15 15:58:38;;;;;;;177.02;94.50;;;10.20;99.90;;;;;;10466116;28;20044;-78
2022/11/15 16:03:40;;;;;;;158.63;86.25;;;10.10;99.90;;;;;;10453893;28;20056;-80
2022/11/15 16:08:40;;;;;;;183.93;102.82;;;9.90;99.90;;;;;;10468460;28;20049;-80
2022/11/15 16:13:41;;;;;;;133.77;70.80;;;9.90;99.90;;;;;;10473901;28;20036;-81
2022/11/15 16:18:41;;;;;;;165.32;88.07;;;9.80;99.90;;;;;;10481232;28;20033;-80
2022/11/15 16:23:42;;;;;;;117.43;64.97;;;9.80;99.90;;;;;;10485775;28;20124;-81
2022/11/15 16:28:42;;;;;;;158.20;83.00;;;9.80;99.90;;;;;;10469389;28;20028;-82
2022/11/15 16:33:43;;;;;;;180.43;93.77;;;9.70;99.90;;;;;;10489440;28;20031;-80
2022/11/15 16:38:44;;;;;;;153.90;82.03;;;9.70;99.90;;;;;;10467498;28;20032;-80
2022/11/15 16:43:45;;;;;;;178.63;94.82;;;9.60;99.90;;;;;;10466915;28;20036;-81
2022/11/15 16:48:47;;;;;;;163.00;83.60;;;9.60;99.90;;;;;;10455520;28;20037;-80
2022/11/15 16:53:50;;;;;;;175.38;92.90;;;9.60;99.90;;;;;;10474389;28;20107;-79
2022/11/15 16:58:53;;;;;;;218.60;111.20;;;9.50;99.90;;;;;;10467893;28;20495;-82
2022/11/15 17:03:54;;;;;;;263.17;131.23;;;9.50;99.90;;;;;;10463493;28;20515;-83
2022/11/15 17:08:55;;;;;;;250.47;127.60;;;9.50;99.90;;;;;;10469219;28;20066;-81
2022/11/15 17:13:59;;;;;;;215.37;119.17;;;9.50;99.90;;;;;;10453493;28;20055;-79
2022/11/15 17:19:00;;;;;;;193.53;111.50;;;9.50;99.90;;;;;;10479917;28;20115;-82
2022/11/15 17:24:01;;;;;;;172.83;101.33;;;9.50;99.90;;;;;;10446109;28;20036;-83
2022/11/15 17:29:03;;;;;;;170.87;105.90;;;9.50;99.90;;;;;;10447846;28;20504;-80
2022/11/15 17:34:05;;;;;;;171.27;102.77;;;9.50;99.90;;;;;;10463853;28;20463;-81
2022/11/15 17:39:06;;;;;;;192.48;115.05;;;9.50;99.90;;;;;;10450076;28;20032;-81
2022/11/15 17:44:06;;;;;;;214.57;123.10;;;9.50;99.90;;;;;;10446427;28;20079;-80
2022/11/15 17:49:07;;;;;;;155.93;90.97;;;9.50;99.90;;;;;;10459980;28;20032;-81
2022/11/15 17:54:10;;;;;;;278.80;173.47;;;9.50;99.90;;;;;;10457455;28;20879;-82
2022/11/15 17:59:11;;;;;;;322.80;185.77;;;9.50;99.90;;;;;;10466120;28;20044;-79
2022/11/15 18:04:13;;;;;;;319.90;161.83;;;9.40;99.90;;;;;;10462671;28;20456;-80
2022/11/15 18:09:14;;;;;;;269.10;153.73;;;9.40;99.90;;;;;;10467244;28;20062;-79
2022/11/15 18:14:14;;;;;;;155.03;91.87;;;9.30;99.90;;;;;;10449341;28;20055;-80
2022/11/15 18:19:15;;;;;;;162.10;93.00;;;9.30;99.90;;;;;;10453212;28;20108;-80
2022/11/15 18:24:15;;;;;;;151.33;85.07;;;9.30;99.90;;;;;;10448064;28;20091;-83
2022/11/15 18:29:17;;;;;;;166.63;94.00;;;9.20;99.90;;;;;;10442871;28;20039;-80
2022/11/15 18:34:17;;;;;;;228.80;126.50;;;9.20;99.90;;;;;;10464385;28;20028;-81
2022/11/15 18:39:19;;;;;;;245.23;141.67;;;9.20;99.90;;;;;;10452268;28;20046;-81
2022/11/15 18:44:19;;;;;;;258.77;139.83;;;9.20;99.90;;;;;;10451220;28;20040;-80
2022/11/15 18:49:20;;;;;;;216.03;122.00;;;9.10;99.90;;;;;;10442248;28;20047;-84
2022/11/15 18:54:20;;;;;;;231.10;125.97;;;9.00;99.90;;;;;;10468888;28;20115;-80
2022/11/15 18:59:21;;;;;;;207.57;121.43;;;9.00;99.90;;;;;;10450683;28;20669;-79
2022/11/15 19:04:21;;;;;;;209.87;115.13;;;9.00;99.90;;;;;;10462363;28;20036;-82
2022/11/15 19:09:26;;;;;;;214.93;121.50;;;9.00;99.90;;;;;;10454783;28;20053;-81
2022/11/15 19:14:27;;;;;;;200.13;113.30;;;9.00;99.90;;;;;;10448551;28;20029;-79
2022/11/15 19:19:27;;;;;;;212.67;120.10;;;8.90;99.90;;;;;;10454243;28;20036;-80
2022/11/15 19:24:29;;;;;;;173.03;102.87;;;8.90;99.90;;;;;;10446177;28;20041;-80
2022/11/15 19:29:29;;;;;;;172.87;101.13;;;8.90;99.90;;;;;;10442488;28;20033;-80
2022/11/15 19:34:30;;;;;;;180.57;101.80;;;8.90;99.90;;;;;;10446013;28;20523;-81
2022/11/15 19:39:30;;;;;;;193.43;111.90;;;8.90;99.90;;;;;;10453597;28;20039;-80
2022/11/15 19:44:31;;;;;;;162.57;97.70;;;8.80;99.90;;;;;;10466944;28;20249;-80
2022/11/15 19:49:31;;;;;;;172.17;99.63;;;8.80;99.90;;;;;;10463416;28;20024;-80
2022/11/15 19:54:32;;;;;;;166.30;98.07;;;8.70;99.90;;;;;;10475980;28;20037;-82
2022/11/15 19:59:33;;;;;;;193.90;112.73;;;8.70;99.90;;;;;;10450790;28;20603;-81
2022/11/15 20:04:33;;;;;;;156.87;87.23;;;8.70;99.90;;;;;;10481343;28;20542;-83
2022/11/15 20:09:34;;;;;;;163.33;92.80;;;8.70;99.90;;;;;;10477135;28;20563;-81
2022/11/15 20:14:34;;;;;;;166.63;96.37;;;8.60;99.90;;;;;;10453183;28;20115;-81
2022/11/15 20:19:35;;;;;;;319.17;166.13;;;8.70;99.90;;;;;;10480027;28;20576;-80
2022/11/15 20:24:35;;;;;;;227.93;121.37;;;8.70;99.90;;;;;;10478929;28;20511;-80
2022/11/15 20:29:36;;;;;;;199.40;109.83;;;8.60;99.90;;;;;;10447148;28;20033;-82
2022/11/15 20:34:37;;;;;;;192.37;107.33;;;8.60;99.90;;;;;;10462695;28;20036;-83
2022/11/15 20:39:38;;;;;;;192.57;107.37;;;8.50;99.90;;;;;;10475649;28;20036;-80
2022/11/15 20:44:38;;;;;;;189.53;104.77;;;8.50;99.90;;;;;;10450506;28;20096;-81
2022/11/15 20:49:39;;;;;;;175.07;100.13;;;8.50;99.90;;;;;;10476019;28;20058;-80
2022/11/15 20:54:39;;;;;;;168.43;97.27;;;8.40;99.90;;;;;;10457513;28;20044;-79
2022/11/15 20:59:40;;;;;;;170.17;95.17;;;8.40;99.90;;;;;;10452665;28;20033;-82
2022/11/15 21:04:40;;;;;;;175.83;98.20;;;8.40;99.90;;;;;;10459366;28;20053;-80
2022/11/15 21:15:00;;;;;;;195.17;108.80;;;8.30;99.90;;;;;;10458893;28;20474;-80
2022/11/15 21:20:01;;;;;;;215.37;120.30;;;8.30;99.90;;;;;;10484007;28;20036;-83
2022/11/15 21:25:01;;;;;;;243.73;131.63;;;8.30;99.90;;;;;;10477266;28;20044;-83
2022/11/15 21:30:03;;;;;;;243.77;133.73;;;8.40;99.90;;;;;;10449923;28;20036;-80
2022/11/15 21:35:04;;;;;;;280.90;147.97;;;8.40;99.90;;;;;;10476465;28;20060;-80
2022/11/15 21:40:06;;;;;;;281.03;156.63;;;8.50;99.90;;;;;;10456049;28;20123;-80
2022/11/15 21:45:07;;;;;;;285.43;159.07;;;8.50;99.90;;;;;;10473862;28;20531;-83
2022/11/15 21:50:08;;;;;;;285.53;162.27;;;8.60;99.90;;;;;;10444044;28;20033;-80
2022/11/15 21:55:08;;;;;;;270.00;152.00;;;8.60;99.90;;;;;;10470566;28;20527;-80
2022/11/15 22:05:29;;;;;;;173.80;100.57;;;8.60;99.90;;;;;;10456096;28;20094;-81
2022/11/15 22:10:29;;;;;;;167.33;97.47;;;8.60;99.90;;;;;;10471603;28;20135;-80
2022/11/15 22:15:30;;;;;;;171.17;103.03;;;8.70;99.90;;;;;;10455914;28;20484;-82
2022/11/15 22:20:31;;;;;;;160.07;91.87;;;8.80;99.90;;;;;;10463911;28;20760;-80
2022/11/15 22:25:31;;;;;;;163.73;93.23;;;8.80;99.90;;;;;;10462976;28;20040;-80
2022/11/15 22:30:32;;;;;;;179.33;105.63;;;8.80;99.90;;;;;;10454176;28;20029;-80
2022/11/15 22:35:34;;;;;;;187.10;106.37;;;8.80;99.90;;;;;;10450942;28;20569;-82
2022/11/15 22:40:35;;;;;;;172.43;104.07;;;8.80;99.90;;;;;;10478797;28;20033;-80
2022/11/15 22:45:36;;;;;;;193.87;114.70;;;8.80;99.90;;;;;;10453159;28;20033;-80
2022/11/15 22:50:37;;;;;;;180.63;107.13;;;8.90;99.90;;;;;;10451998;28;20021;-80
2022/11/15 22:55:39;;;;;;;176.40;102.63;;;8.90;99.90;;;;;;10453128;28;20491;-80
2022/11/15 23:00:39;;;;;;;162.00;95.20;;;8.90;99.90;;;;;;10465918;28;20033;-81
2022/11/15 23:05:40;;;;;;;171.73;98.57;;;8.90;99.90;;;;;;10447519;28;20044;-79
2022/11/15 23:16:22;;;;;;;179.90;99.97;;;8.90;99.90;;;;;;10454100;28;20049;-82
2022/11/15 23:27:03;;;;;;;154.43;91.43;;;8.90;99.90;;;;;;10476033;28;20481;-80
2022/11/15 23:37:22;;;;;;;180.20;106.67;;;8.90;99.90;;;;;;10480237;28;20487;-79
2022/11/15 23:42:23;;;;;;;163.67;93.93;;;8.90;99.90;;;;;;10477008;28;20131;-79
2022/11/15 23:47:24;;;;;;;155.87;93.07;;;9.00;99.90;;;;;;10463371;28;20032;-82
2022/11/15 23:52:24;;;;;;;157.83;92.73;;;9.00;99.90;;;;;;10478062;28;20051;-80
2022/11/15 23:57:25;;;;;;;154.90;92.00;;;9.00;99.90;;;;;;10467038;28;20021;-79
